createdAt,value
2022-12-23T00:02:00.381Z,7.03
2022-12-23T00:04:28.525Z,6.57
2022-12-23T00:06:58.291Z,7.10
2022-12-23T00:09:26.319Z,6.95
2022-12-23T00:12:08.153Z,6.88
2022-12-23T00:14:53.525Z,5.90
2022-12-23T00:17:22.996Z,6.93
2022-12-23T00:19:51.376Z,6.93
2022-12-23T00:22:40.979Z,6.90
2022-12-23T00:25:09.756Z,7.07
2022-12-23T00:27:38.005Z,6.50
2022-12-23T00:30:08.181Z,6.97
2022-12-23T00:32:36.415Z,6.85
2022-12-23T00:35:04.551Z,6.65
2022-12-23T00:37:34.085Z,7.13
2022-12-23T00:40:19.691Z,7.68
2022-12-23T00:42:59.705Z,7.43
2022-12-23T00:45:27.843Z,8.27
2022-12-23T00:48:13.236Z,7.57
2022-12-23T00:50:44.077Z,7.65
2022-12-23T00:53:14.067Z,8.88
2022-12-23T00:55:46.311Z,8.18
2022-12-23T00:58:23.040Z,9.05
2022-12-23T01:01:12.570Z,9.30
2022-12-23T01:03:58.294Z,10.07
2022-12-23T01:06:37.307Z,9.60
2022-12-23T01:09:11.000Z,9.40
2022-12-23T01:11:43.506Z,8.18
2022-12-23T01:16:46.913Z,9.95
2022-12-23T01:20:03.372Z,11.15
2022-12-23T01:22:07.513Z,12.07
2022-12-23T01:24:42.128Z,12.88
2022-12-23T01:27:14.303Z,11.27
2022-12-23T01:29:43.419Z,14.38
2022-12-23T01:32:22.112Z,10.82
2022-12-23T01:35:41.183Z,12.65
2022-12-23T01:44:11.024Z,12.27
2022-12-23T01:47:09.233Z,13.45
2022-12-23T01:49:50.034Z,10.93
2022-12-23T01:52:33.092Z,12.82
2022-12-23T01:55:21.636Z,13.07
2022-12-23T01:58:28.775Z,12.88
2022-12-23T02:01:38.700Z,13.07
2022-12-23T02:04:17.820Z,12.00
2022-12-23T02:08:31.046Z,12.73
2022-12-23T02:10:48.363Z,12.77
2022-12-23T02:13:28.373Z,13.93
2022-12-23T02:16:20.174Z,14.13
2022-12-23T02:19:15.177Z,15.25
2022-12-23T02:22:20.822Z,13.95
2022-12-23T02:25:39.143Z,13.18
2022-12-23T02:28:32.324Z,15.30
2022-12-23T02:31:28.010Z,13.70
2022-12-23T02:34:08.070Z,14.13
2022-12-23T02:36:47.101Z,12.52
2022-12-23T02:39:33.723Z,15.70
2022-12-23T02:42:09.386Z,14.57
2022-12-23T02:44:46.244Z,13.70
2022-12-23T02:47:25.171Z,15.35
2022-12-23T02:50:08.027Z,15.25
2022-12-23T02:52:40.387Z,13.88
2022-12-23T02:55:15.255Z,17.02
2022-12-23T02:57:48.171Z,15.35
2022-12-23T03:00:29.008Z,17.52
2022-12-23T03:02:59.427Z,18.88
2022-12-23T03:05:30.236Z,18.08
2022-12-23T03:08:06.092Z,18.98
2022-12-23T03:10:43.146Z,16.20
2022-12-23T03:13:22.748Z,17.55
2022-12-23T03:16:06.639Z,15.55
2022-12-23T03:18:55.385Z,16.67
2022-12-23T03:21:38.268Z,19.65
2022-12-23T03:24:15.747Z,21.25
2022-12-23T03:27:00.201Z,18.98
2022-12-23T03:30:52.342Z,18.60
2022-12-23T03:34:42.843Z,21.48
2022-12-23T03:37:41.449Z,19.30
2022-12-23T03:44:17.727Z,18.55
2022-12-23T03:47:19.399Z,21.80
2022-12-23T03:54:14.759Z,22.70
2022-12-23T03:57:11.100Z,21.08
2022-12-23T04:00:20.443Z,21.05
2022-12-23T04:03:15.616Z,20.10
2022-12-23T04:06:18.943Z,20.73
2022-12-23T04:09:48.379Z,20.17
2022-12-23T04:13:14.329Z,20.67
2022-12-23T04:19:22.890Z,21.73
2022-12-23T04:22:20.643Z,19.50
2022-12-23T04:25:27.073Z,24.27
2022-12-23T04:29:30.951Z,24.98
2022-12-23T04:49:09.085Z,23.35
2022-12-23T04:52:36.184Z,19.98
2022-12-23T04:59:38.154Z,23.20
2022-12-23T05:13:46.648Z,17.80
2022-12-23T05:16:25.556Z,12.48
2022-12-23T05:19:46.270Z,17.63
2022-12-23T05:23:02.485Z,15.98
2022-12-23T05:26:15.292Z,17.67
2022-12-23T05:29:54.300Z,16.05
2022-12-23T05:34:06.363Z,16.73
2022-12-23T05:43:28.878Z,17.50
2022-12-23T05:50:32.315Z,19.60
2022-12-23T05:53:40.830Z,17.85
2022-12-23T05:56:37.000Z,19.92
2022-12-23T05:59:53.683Z,19.73
2022-12-23T06:03:05.717Z,19.83
2022-12-23T06:15:51.954Z,19.08
2022-12-23T06:18:19.923Z,17.67
2022-12-23T06:20:48.559Z,20.65
2022-12-23T06:23:16.350Z,16.17
2022-12-23T06:25:44.207Z,18.40
2022-12-23T06:28:11.993Z,19.48
2022-12-23T06:30:40.031Z,18.45
2022-12-23T06:33:09.285Z,18.27
2022-12-23T06:35:37.072Z,15.18
2022-12-23T06:38:10.319Z,19.88
2022-12-23T06:40:40.185Z,20.75
2022-12-23T06:43:08.179Z,18.55
2022-12-23T06:45:35.973Z,18.50
2022-12-23T06:48:03.874Z,17.67
2022-12-23T06:50:33.312Z,22.40
2022-12-23T06:53:01.575Z,21.08
2022-12-23T06:55:29.520Z,15.50
2022-12-23T06:57:57.353Z,19.60
2022-12-23T07:00:25.393Z,18.73
2022-12-23T07:02:54.653Z,20.48
2022-12-23T07:05:22.643Z,19.10
2022-12-23T07:07:51.857Z,23.38
2022-12-23T07:10:19.672Z,19.02
2022-12-23T07:12:50.853Z,21.67
2022-12-23T07:15:19.363Z,25.02
2022-12-23T07:17:47.272Z,22.58
2022-12-23T07:20:15.314Z,26.73
2022-12-23T07:22:43.121Z,25.65
2022-12-23T07:25:12.681Z,25.55
2022-12-23T07:27:40.713Z,24.65
2022-12-23T07:30:09.771Z,21.55
2022-12-23T07:32:37.494Z,27.05
2022-12-23T07:35:06.006Z,25.80
2022-12-23T07:37:33.792Z,25.73
2022-12-23T07:40:08.034Z,26.08
2022-12-23T07:42:46.878Z,25.75
2022-12-23T07:45:15.066Z,27.00
2022-12-23T07:47:43.027Z,24.77
2022-12-23T07:50:11.257Z,23.83
2022-12-23T07:52:39.494Z,21.48
2022-12-23T07:55:07.982Z,25.42
2022-12-23T07:57:38.242Z,23.75
2022-12-23T08:00:08.209Z,24.25
2022-12-23T08:02:36.073Z,23.55
2022-12-23T08:05:04.005Z,22.73
2022-12-23T08:07:31.721Z,23.10
2022-12-23T08:09:59.566Z,27.50
2022-12-23T08:12:27.655Z,24.02
2022-12-23T08:14:56.843Z,25.15
2022-12-23T08:17:27.392Z,22.38
2022-12-23T08:19:55.689Z,22.90
2022-12-23T08:22:24.675Z,21.70
2022-12-23T08:24:53.430Z,22.30
2022-12-23T08:27:21.398Z,23.08
2022-12-23T08:29:49.292Z,23.05
2022-12-23T08:32:18.491Z,23.30
2022-12-23T08:34:46.406Z,22.65
2022-12-23T08:37:14.601Z,24.17
2022-12-23T08:39:43.708Z,24.88
2022-12-23T08:42:11.506Z,23.35
2022-12-23T08:44:39.338Z,23.75
2022-12-23T08:47:07.549Z,21.73
2022-12-23T08:49:36.916Z,21.42
2022-12-23T08:52:04.841Z,19.65
2022-12-23T08:54:32.676Z,19.67
2022-12-23T08:57:00.884Z,20.15
2022-12-23T08:59:28.945Z,19.60
2022-12-23T09:01:59.748Z,18.05
2022-12-23T09:04:27.912Z,19.70
2022-12-23T09:06:57.391Z,21.90
2022-12-23T09:09:25.529Z,19.52
2022-12-23T09:11:53.384Z,19.70
2022-12-23T09:14:21.748Z,19.20
2022-12-23T09:16:52.153Z,17.70
2022-12-23T09:19:20.516Z,19.95
2022-12-23T09:21:48.902Z,17.38
2022-12-23T09:24:18.100Z,19.90
2022-12-23T09:26:46.125Z,20.35
2022-12-23T09:29:13.974Z,20.60
2022-12-23T09:31:41.876Z,24.08
2022-12-23T09:34:12.463Z,26.55
2022-12-23T09:36:40.522Z,21.48
2022-12-23T09:39:08.355Z,20.58
2022-12-23T09:41:53.438Z,20.00
2022-12-23T09:44:43.171Z,19.50
2022-12-23T09:47:17.427Z,18.65
2022-12-23T09:49:49.841Z,19.30
2022-12-23T09:54:51.923Z,18.27
2022-12-23T09:57:25.237Z,18.00
2022-12-23T10:00:03.830Z,19.42
2022-12-23T10:02:55.233Z,18.27
2022-12-23T10:05:31.780Z,18.17
2022-12-23T10:08:05.011Z,20.25
2022-12-23T10:10:37.591Z,17.95
2022-12-23T10:13:12.737Z,17.13
2022-12-23T10:15:44.517Z,18.75
2022-12-23T10:18:19.173Z,18.08
2022-12-23T10:20:52.236Z,16.15
2022-12-23T10:23:28.838Z,15.60
2022-12-23T10:25:57.157Z,15.65
2022-12-23T10:28:30.058Z,14.20
2022-12-23T10:31:38.605Z,15.77
2022-12-23T10:34:06.547Z,15.65
2022-12-23T10:36:42.825Z,17.50
2022-12-23T10:39:22.514Z,24.60
2022-12-23T10:42:02.202Z,27.42
2022-12-23T10:45:10.586Z,19.50
2022-12-23T10:47:49.176Z,18.08
2022-12-23T10:50:39.250Z,19.88
2022-12-23T10:53:13.479Z,30.65
2022-12-23T10:55:41.554Z,34.00
2022-12-23T10:58:14.696Z,33.45
2022-12-23T11:00:47.617Z,32.33
2022-12-23T11:03:25.546Z,24.08
2022-12-23T11:05:55.066Z,25.80
2022-12-23T11:08:24.615Z,25.23
2022-12-23T11:10:52.493Z,26.17
2022-12-23T11:13:37.969Z,18.00
2022-12-23T11:16:25.356Z,21.13
2022-12-23T11:18:56.345Z,21.52
2022-12-23T11:21:24.423Z,20.00
2022-12-23T11:24:35.427Z,20.80
2022-12-23T11:27:12.629Z,23.00
2022-12-23T11:29:45.208Z,28.45
2022-12-23T11:32:20.049Z,28.25
2022-12-23T11:34:49.296Z,23.88
2022-12-23T11:37:33.371Z,20.98
2022-12-23T11:40:01.706Z,27.88
2022-12-23T11:42:31.540Z,22.10
2022-12-23T11:45:01.014Z,15.57
2022-12-23T11:47:37.058Z,15.60
2022-12-23T11:50:27.754Z,15.60
2022-12-23T11:53:01.947Z,13.70
2022-12-23T11:55:32.959Z,14.23
2022-12-23T11:58:02.793Z,10.95
2022-12-23T12:00:42.035Z,106.57
2022-12-23T12:03:20.233Z,13.80
2022-12-23T12:05:52.685Z,14.82
2022-12-23T12:08:23.485Z,14.38
2022-12-23T12:10:54.054Z,14.13
2022-12-23T12:13:27.285Z,13.02
2022-12-23T12:16:09.034Z,13.57
2022-12-23T12:18:41.041Z,10.27
2022-12-23T12:21:13.614Z,13.35
2022-12-23T12:23:47.570Z,22.10
2022-12-23T12:26:24.386Z,14.65
2022-12-23T12:28:58.269Z,21.88
2022-12-23T12:31:32.625Z,21.40
2022-12-23T12:34:05.859Z,41.78
2022-12-23T12:36:43.262Z,28.98
2022-12-23T12:39:19.045Z,40.83
2022-12-23T12:41:58.503Z,26.83
2022-12-23T12:44:39.193Z,23.00
2022-12-23T12:47:36.344Z,22.88
2022-12-23T12:50:09.443Z,51.00
2022-12-23T12:52:42.558Z,33.13
2022-12-23T12:55:20.000Z,25.38
2022-12-23T12:58:14.494Z,21.80
2022-12-23T13:01:03.460Z,33.65
2022-12-23T13:03:59.818Z,55.83
2022-12-23T13:06:46.570Z,43.30
2022-12-23T13:09:30.974Z,40.55
2022-12-23T13:12:35.677Z,26.40
2022-12-23T13:15:18.124Z,27.45
2022-12-23T13:19:10.006Z,14.85
2022-12-23T13:22:20.512Z,12.80
2022-12-23T13:24:49.114Z,15.35
2022-12-23T13:27:44.207Z,14.02
2022-12-23T13:30:44.205Z,12.75
2022-12-23T13:33:40.667Z,22.38
2022-12-23T13:36:35.827Z,15.48
2022-12-23T13:39:18.034Z,13.75
2022-12-23T13:41:51.105Z,9.70
2022-12-23T13:48:13.122Z,11.15
2022-12-23T13:50:50.175Z,14.23
2022-12-23T13:53:25.966Z,14.70
2022-12-23T13:56:04.026Z,25.70
2022-12-23T13:58:33.240Z,13.68
2022-12-23T14:01:22.698Z,12.07
2022-12-23T14:03:51.906Z,7.90
2022-12-23T14:06:44.431Z,8.82
2022-12-23T14:09:16.436Z,7.88
2022-12-23T14:11:45.479Z,8.90
2022-12-23T14:14:22.079Z,7.28
2022-12-23T14:17:02.430Z,6.88
2022-12-23T14:19:52.982Z,7.28
2022-12-23T14:22:41.496Z,7.00
2022-12-23T14:25:29.925Z,7.10
2022-12-23T14:28:08.973Z,6.38
2022-12-23T14:30:38.906Z,6.88
2022-12-23T14:33:17.146Z,7.03
2022-12-23T14:35:53.637Z,6.43
2022-12-23T14:38:33.303Z,5.35
2022-12-23T14:41:25.938Z,5.75
2022-12-23T14:44:00.080Z,9.15
2022-12-23T14:46:57.879Z,10.60
2022-12-23T14:49:40.733Z,8.98
2022-12-23T14:52:49.243Z,10.95
2022-12-23T14:55:50.147Z,37.97
2022-12-23T14:58:59.530Z,41.97
2022-12-23T15:01:34.739Z,24.30
2022-12-23T15:04:08.783Z,49.55
2022-12-23T15:06:39.670Z,33.33
2022-12-23T15:09:08.647Z,12.10
2022-12-23T15:11:38.179Z,12.77
2022-12-23T15:14:11.168Z,15.63
2022-12-23T15:16:45.037Z,10.52
2022-12-23T15:19:21.519Z,36.05
2022-12-23T15:21:58.329Z,7.43
2022-12-23T15:24:31.012Z,10.37
2022-12-23T15:27:25.949Z,29.83
2022-12-23T15:29:51.422Z,65.20
2022-12-23T15:32:20.859Z,19.35
2022-12-23T15:34:49.597Z,17.40
2022-12-23T15:37:23.078Z,10.05
2022-12-23T15:39:55.829Z,8.73
2022-12-23T15:42:35.473Z,10.43
2022-12-23T15:45:27.024Z,13.10
2022-12-23T15:47:54.809Z,17.83
2022-12-23T15:50:22.616Z,15.48
2022-12-23T15:52:53.830Z,15.18
2022-12-23T15:55:26.253Z,12.23
2022-12-23T16:00:27.484Z,10.15
2022-12-23T16:03:02.362Z,10.35
2022-12-23T16:05:34.050Z,10.77
2022-12-23T16:08:12.911Z,9.07
2022-12-23T16:10:41.578Z,12.88
2022-12-23T16:13:18.813Z,13.40
2022-12-23T16:15:47.583Z,10.30
2022-12-23T16:18:23.227Z,11.45
2022-12-23T16:20:54.573Z,11.00
2022-12-23T16:23:23.748Z,10.10
2022-12-23T16:25:53.931Z,9.98
2022-12-23T16:28:27.470Z,12.05
2022-12-23T16:30:58.332Z,13.15
2022-12-23T16:33:36.294Z,12.02
2022-12-23T16:36:18.047Z,12.73
2022-12-23T16:38:46.666Z,14.47
2022-12-23T16:41:14.623Z,12.90
2022-12-23T16:43:51.623Z,13.77
2022-12-23T16:46:21.815Z,14.95
2022-12-23T16:48:51.510Z,14.55
2022-12-23T16:51:21.889Z,16.10
2022-12-23T16:53:50.204Z,16.67
2022-12-23T16:56:19.999Z,16.35
2022-12-23T16:58:49.682Z,18.38
2022-12-23T17:01:21.099Z,17.10
2022-12-23T17:03:48.916Z,18.10
2022-12-23T17:06:18.953Z,22.73
2022-12-23T17:08:47.477Z,20.08
2022-12-23T17:11:18.314Z,23.30
2022-12-23T17:13:48.880Z,23.42
2022-12-23T17:16:20.327Z,19.70
2022-12-23T17:18:48.666Z,16.80
2022-12-23T17:21:22.602Z,15.20
2022-12-23T17:23:51.316Z,15.48
2022-12-23T17:26:19.261Z,18.92
2022-12-23T17:28:47.005Z,13.52
2022-12-23T17:31:22.374Z,12.45
2022-12-23T17:33:55.295Z,10.70
2022-12-23T17:36:23.407Z,8.95
2022-12-23T17:38:51.185Z,9.45
2022-12-23T17:41:24.247Z,8.63
2022-12-23T17:43:52.073Z,9.60
2022-12-23T17:46:21.138Z,9.10
2022-12-23T17:48:49.026Z,10.00
2022-12-23T17:51:20.412Z,9.50
2022-12-23T17:53:53.203Z,10.95
2022-12-23T17:56:25.495Z,10.43
2022-12-23T17:58:53.609Z,9.90
2022-12-23T18:01:24.395Z,8.90
2022-12-23T18:03:52.684Z,8.75
2022-12-23T18:06:23.676Z,8.43
2022-12-23T18:08:51.891Z,9.20
2022-12-23T18:11:23.555Z,8.82
2022-12-23T18:13:54.117Z,10.27
2022-12-23T18:16:22.124Z,8.80
2022-12-23T18:18:50.245Z,7.22
2022-12-23T18:21:23.889Z,7.32
2022-12-23T18:23:53.084Z,7.22
2022-12-23T18:26:20.876Z,7.07
2022-12-23T18:28:48.686Z,7.05
2022-12-23T18:31:18.491Z,7.25
2022-12-23T18:33:46.743Z,6.47
2022-12-23T18:36:24.052Z,5.72
2022-12-23T18:38:52.919Z,5.28
2022-12-23T18:41:21.501Z,5.15
2022-12-23T18:43:49.482Z,4.78
2022-12-23T18:46:17.605Z,5.20
2022-12-23T18:48:45.675Z,4.88
2022-12-23T18:51:15.555Z,5.43
2022-12-23T18:53:45.054Z,5.15
2022-12-23T18:56:14.951Z,5.13
2022-12-23T18:58:43.400Z,5.70
2022-12-23T19:01:12.879Z,6.45
2022-12-23T19:03:41.047Z,6.05
2022-12-23T19:06:10.383Z,4.95
2022-12-23T19:08:39.271Z,4.95
2022-12-23T19:11:12.563Z,5.05
2022-12-23T19:13:40.522Z,5.40
2022-12-23T19:16:08.780Z,5.25
2022-12-23T19:18:36.736Z,5.13
2022-12-23T19:21:05.371Z,5.13
2022-12-23T19:23:33.228Z,5.10
2022-12-23T19:26:01.012Z,5.68
2022-12-23T19:28:30.412Z,5.75
2022-12-23T19:30:58.255Z,6.35
2022-12-23T19:33:26.131Z,9.23
2022-12-23T19:35:53.878Z,8.15
2022-12-23T19:38:21.675Z,6.85
2022-12-23T19:41:00.693Z,7.15
2022-12-23T19:43:29.876Z,7.55
2022-12-23T19:45:58.922Z,6.80
2022-12-23T19:48:26.928Z,6.18
2022-12-23T19:50:59.033Z,11.38
2022-12-23T19:53:26.910Z,6.63
2022-12-23T19:55:59.221Z,5.25
2022-12-23T20:01:06.555Z,9.65
2022-12-23T20:03:34.771Z,8.63
2022-12-23T20:06:02.632Z,6.70
2022-12-23T20:08:30.624Z,6.25
2022-12-23T20:11:04.963Z,5.88
2022-12-23T20:13:32.788Z,5.80
2022-12-23T20:16:02.322Z,5.20
2022-12-23T20:18:30.221Z,5.43
2022-12-23T20:20:59.545Z,5.40
2022-12-23T20:23:27.440Z,5.30
2022-12-23T20:25:55.479Z,5.55
2022-12-23T20:28:23.387Z,5.90
2022-12-23T20:31:02.135Z,5.85
2022-12-23T20:33:29.928Z,10.25
2022-12-23T20:35:57.747Z,10.15
2022-12-23T20:38:25.602Z,10.25
2022-12-23T20:40:53.373Z,8.55
2022-12-23T20:43:21.242Z,5.28
2022-12-23T20:45:52.051Z,6.05
2022-12-23T20:48:21.805Z,5.60
2022-12-23T20:50:49.990Z,5.30
2022-12-23T20:53:18.073Z,5.07
2022-12-23T20:55:46.000Z,5.28
2022-12-23T20:58:31.051Z,5.38
2022-12-23T21:01:08.755Z,5.55
2022-12-23T21:03:38.027Z,5.47
2022-12-23T21:06:06.518Z,5.28
2022-12-23T21:08:34.810Z,5.57
2022-12-23T21:11:02.620Z,5.35
2022-12-23T21:13:30.447Z,5.47
2022-12-23T21:16:02.011Z,5.60
2022-12-23T21:18:29.982Z,5.03
2022-12-23T21:21:01.607Z,5.43
2022-12-23T21:23:30.352Z,5.40
2022-12-23T21:26:09.666Z,6.15
2022-12-23T21:28:38.546Z,8.57
2022-12-23T21:31:07.047Z,8.77
2022-12-23T21:33:37.253Z,6.05
2022-12-23T21:36:08.042Z,5.90
2022-12-23T21:38:38.363Z,6.15
2022-12-23T21:41:08.722Z,5.90
2022-12-23T21:43:36.904Z,5.63
2022-12-23T21:46:07.179Z,5.65
2022-12-23T21:48:37.045Z,5.38
2022-12-23T21:51:08.939Z,5.90
2022-12-23T21:53:37.391Z,5.40
2022-12-23T21:56:06.995Z,5.82
2022-12-23T21:58:35.595Z,5.68
2022-12-23T22:01:08.570Z,5.85
2022-12-23T22:03:36.734Z,6.05
2022-12-23T22:06:10.491Z,5.45
2022-12-23T22:08:39.223Z,5.32
2022-12-23T22:11:08.492Z,5.05
2022-12-23T22:13:36.466Z,5.28
2022-12-23T22:16:05.507Z,5.57
2022-12-23T22:18:33.363Z,5.20
2022-12-23T22:21:06.628Z,5.43
2022-12-23T22:23:34.580Z,5.30
2022-12-23T22:26:02.401Z,6.50
2022-12-23T22:28:32.256Z,6.50
2022-12-23T22:31:03.415Z,6.18
2022-12-23T22:33:32.714Z,5.82
2022-12-23T22:36:00.897Z,6.53
2022-12-23T22:38:30.305Z,6.32
2022-12-23T22:40:58.165Z,5.22
2022-12-23T22:43:25.949Z,6.43
2022-12-23T22:45:57.579Z,5.93
2022-12-23T22:48:26.116Z,5.63
2022-12-23T22:51:02.913Z,6.05
2022-12-23T22:53:32.749Z,5.65
2022-12-23T22:56:01.373Z,6.00
2022-12-23T22:58:30.333Z,6.00
2022-12-23T23:00:58.791Z,5.82
2022-12-23T23:03:27.603Z,5.60
2022-12-23T23:05:59.973Z,5.78
2022-12-23T23:08:27.917Z,4.90
2022-12-23T23:10:59.914Z,5.18
2022-12-23T23:13:30.518Z,5.63
2022-12-23T23:15:59.293Z,5.00
2022-12-23T23:18:27.587Z,5.05
2022-12-23T23:20:55.844Z,5.32
2022-12-23T23:23:23.667Z,5.82
2022-12-23T23:25:51.759Z,5.20
2022-12-23T23:28:21.079Z,4.90
2022-12-23T23:30:55.415Z,5.00
2022-12-23T23:36:00.232Z,4.88
2022-12-23T23:38:28.822Z,5.45
2022-12-23T23:40:57.476Z,6.40
2022-12-23T23:43:26.637Z,6.03
2022-12-23T23:45:54.505Z,5.60
2022-12-23T23:48:22.648Z,5.35
2022-12-23T23:50:50.583Z,5.63
2022-12-23T23:53:18.698Z,4.88
2022-12-23T23:55:46.700Z,5.43
2022-12-23T23:58:14.517Z,5.03
